Spalding, Nebraska
Current Conditions -  °F | °C
As of 12:55 AM on Monday 24 Nov 2014 (Local Time) from KBVN Reporting Station
Overcast Overcast  
Wind Chill: 20°   Ceiling: 2800
Heat Index: 30°   Visibility: 10mi
Dew Point: 21°   Wind: 14mph
Humidity: 68%   Direction: 320°NW
Pressure: 29.59"   Gusts: 23mph
Location:  41.69°N, 98.36°W
Report Text: KBVN 240655Z AUTO 32012G20KT 10SM OVC028 M01/M06 A2959 RMK AO2 T10091061
Loading
Personal Weather Stations






























Interactive Weather Map New forecast layout! Learn more

10-Day Weather Forecast

Advertisements
Track Severe Weather on mobile